Avondale, AZ

3:57 PM MST on December 20, 2014 (GMT -0700)
Rancho Santa Fe | Change Station
CLOSE
Current Station
Personal Weather Station
Location: Avondale, AZ
Elevation: 1005 ft
Nearby Weather Stations

Elev 1005 ft 33.48 °N, 112.33 °W | Updated 27 seconds ago

Mostly Cloudy
Mostly Cloudy
65.3 °F
Feels Like 65.3 °F
N
0.0
Wind Variable Wind from SE
Gusts 1.1 mph

Today
High -- | Low -- °F
--% Chance of Precip.
Yesterday
High -- | Low -- °F
Precip. -- in
7:28 AM 5:25 PM
Waning Crescent, 2% visible
Pressure 30.08 in
Visibility 10.0 miles
Clouds Few 10000 ft
Scattered Clouds 18000 ft
Mostly Cloudy 25000 ft
Dew Point 38 °F
Humidity 37%
Rainfall 0.00 in
Snow Depth Not available.
UV 1 out of 12
Pollen 5.70 out of 12
Air Quality Not available.
Flu Activity Not available.
METAR KGYR 202247Z 26005KT 10SM FEW100 SCT180 BKN250 17/04 A3008

More Conditions Fewer Conditions

Pressure 30.08 in
Visibility 10.0 miles
Clouds Few 10000 ft
Scattered Clouds 18000 ft
Mostly Cloudy 25000 ft
Dew Point 38 °F
Humidity 37%
Rainfall 0.00 in
Snow Depth Not available.
UV 1 out of 12
Pollen 5.70 out of 12
Air Quality Not available.
Flu Activity Not available.
METAR KGYR 202247Z 26005KT 10SM FEW100 SCT180 BKN250 17/04 A3008

More Conditions Fewer Conditions

10-Day Weather Forecast

Almanac

Astronomy

Dec. 20, 2014 Rise Set
Actual Time
Civil Twilight
Nautical Twilight
Astronomical Twilight
Moon
Length of Visible Light
Length of Day
Tomorrow will be .
, % of the Moon is Illuminated

Today's Extremes

State Highs State Lows

Community

WunderPhotos

Upload Photos

1,779,293 photos uploaded!

WunderBlogs® & News

Nearby

Air Quality

  Air Quality AQ Index Pollutant
Not available.

Snow Depth

Station Depth Elevation

Earthquake Activity

City Distance Mag. Time & Date
Minimum magnitude displayed is 2.5.

Coastal Water Temperatures

Place Temperature

Nearby Weather Stations